createdAt,value
2023-01-10T00:00:38.151Z,1.00
2023-01-10T00:03:07.739Z,1.08
2023-01-10T00:05:38.275Z,1.17
2023-01-10T00:08:06.215Z,0.93
2023-01-10T00:10:33.939Z,0.88
2023-01-10T00:13:19.329Z,1.10
2023-01-10T00:15:46.093Z,1.58
2023-01-10T00:18:12.709Z,0.80
2023-01-10T00:20:39.229Z,0.80
2023-01-10T00:23:05.647Z,1.02
2023-01-10T00:25:34.449Z,1.20
2023-01-10T00:28:19.378Z,1.13
2023-01-10T00:31:06.490Z,1.40
2023-01-10T00:33:34.472Z,1.00
2023-01-10T00:36:01.706Z,0.80
2023-01-10T00:38:28.506Z,1.17
2023-01-10T00:40:54.927Z,1.02
2023-01-10T00:43:40.112Z,0.80
2023-01-10T00:46:06.634Z,0.90
2023-01-10T00:48:33.029Z,1.08
2023-01-10T00:50:59.621Z,0.73
2023-01-10T00:53:26.116Z,0.73
2023-01-10T00:55:53.739Z,0.63
2023-01-10T00:58:20.689Z,0.70
2023-01-10T01:00:49.496Z,0.75
2023-01-10T01:03:17.749Z,1.10
2023-01-10T01:05:44.893Z,1.00
2023-01-10T01:08:13.439Z,0.70
2023-01-10T01:10:39.855Z,0.80
2023-01-10T01:13:12.305Z,1.15
2023-01-10T01:15:38.754Z,0.90
2023-01-10T01:18:06.411Z,1.05
2023-01-10T01:20:33.558Z,1.50
2023-01-10T01:23:01.049Z,0.70
2023-01-10T01:25:28.077Z,1.17
2023-01-10T01:27:54.533Z,0.77
2023-01-10T01:30:21.188Z,1.10
2023-01-10T01:32:47.650Z,0.63
2023-01-10T01:35:15.902Z,1.00
2023-01-10T01:37:43.602Z,1.00
2023-01-10T01:40:14.022Z,0.68
2023-01-10T01:42:40.655Z,0.60
2023-01-10T01:45:09.884Z,0.93
2023-01-10T01:47:43.790Z,0.90
2023-01-10T01:50:24.803Z,0.75
2023-01-10T01:52:54.904Z,1.30
2023-01-10T01:55:22.667Z,0.77
2023-01-10T01:57:52.011Z,0.93
2023-01-10T02:00:18.660Z,1.00
2023-01-10T02:03:01.756Z,0.82
2023-01-10T02:05:32.009Z,0.63
2023-01-10T02:07:59.939Z,0.70
2023-01-10T02:10:48.759Z,0.82
2023-01-10T02:13:19.358Z,1.00
2023-01-10T02:15:46.145Z,1.20
2023-01-10T02:18:13.077Z,1.00
2023-01-10T02:21:10.448Z,1.00
2023-01-10T02:23:42.685Z,1.27
2023-01-10T02:26:34.857Z,1.30
2023-01-10T02:29:26.516Z,1.15
2023-01-10T02:32:02.115Z,0.50
2023-01-10T02:34:48.787Z,0.82
2023-01-10T02:37:23.001Z,1.25
2023-01-10T02:39:55.345Z,1.27
2023-01-10T02:42:52.379Z,0.95
2023-01-10T02:45:30.709Z,1.30
2023-01-10T02:47:58.108Z,1.17
2023-01-10T02:50:33.553Z,1.10
2023-01-10T02:53:06.881Z,1.17
2023-01-10T02:56:10.517Z,1.40
2023-01-10T02:59:00.696Z,1.23
2023-01-10T03:01:42.533Z,0.90
2023-01-10T03:04:32.307Z,1.13
2023-01-10T03:07:09.885Z,0.97
2023-01-10T03:09:56.068Z,1.45
2023-01-10T03:12:32.041Z,1.17
2023-01-10T03:15:00.546Z,1.08
2023-01-10T03:17:30.506Z,0.80
2023-01-10T03:20:01.065Z,1.17
2023-01-10T03:22:30.774Z,0.75
2023-01-10T03:24:59.715Z,1.02
2023-01-10T03:27:44.910Z,1.50
2023-01-10T03:30:35.987Z,1.20
2023-01-10T03:33:03.620Z,1.13
2023-01-10T03:35:54.436Z,1.50
2023-01-10T03:38:38.292Z,1.02
2023-01-10T03:41:29.351Z,1.05
2023-01-10T03:44:20.960Z,1.10
2023-01-10T03:46:51.245Z,2.10
2023-01-10T03:49:20.357Z,0.93
2023-01-10T03:51:47.948Z,0.93
2023-01-10T03:54:16.731Z,1.15
2023-01-10T03:56:47.720Z,0.85
2023-01-10T03:59:14.389Z,1.47
2023-01-10T04:01:40.968Z,1.00
2023-01-10T04:04:07.498Z,1.45
2023-01-10T04:06:34.204Z,0.88
2023-01-10T04:09:00.575Z,0.88
2023-01-10T04:11:27.062Z,1.37
2023-01-10T04:13:54.062Z,0.73
2023-01-10T04:16:20.491Z,1.13
2023-01-10T04:18:47.445Z,1.15
2023-01-10T04:21:13.878Z,1.05
2023-01-10T04:23:40.453Z,1.00
2023-01-10T04:26:07.225Z,0.80
2023-01-10T04:28:33.767Z,1.00
2023-01-10T04:31:00.209Z,1.00
2023-01-10T04:33:28.464Z,1.45
2023-01-10T04:35:54.963Z,1.30
2023-01-10T04:38:21.436Z,1.10
2023-01-10T04:40:55.708Z,1.20
2023-01-10T04:43:23.393Z,1.60
2023-01-10T04:45:49.960Z,1.30
2023-01-10T04:48:17.115Z,1.07
2023-01-10T04:50:43.518Z,1.70
2023-01-10T04:53:09.984Z,1.60
2023-01-10T04:55:36.334Z,1.30
2023-01-10T04:58:02.718Z,1.10
2023-01-10T05:00:29.180Z,0.83
2023-01-10T05:02:56.659Z,0.90
2023-01-10T05:05:23.785Z,0.82
2023-01-10T05:07:50.947Z,1.20
2023-01-10T05:10:17.373Z,1.10
2023-01-10T05:12:45.771Z,1.37
2023-01-10T05:15:12.908Z,1.38
2023-01-10T05:17:39.579Z,1.13
2023-01-10T05:20:06.501Z,0.90
2023-01-10T05:22:33.156Z,1.55
2023-01-10T05:24:59.937Z,1.50
2023-01-10T05:27:26.437Z,1.75
2023-01-10T05:29:52.872Z,1.00
2023-01-10T05:32:19.247Z,1.10
2023-01-10T05:34:45.591Z,1.27
2023-01-10T05:37:12.049Z,1.33
2023-01-10T05:39:39.946Z,1.08
2023-01-10T05:42:06.357Z,1.30
2023-01-10T05:44:32.855Z,0.98
2023-01-10T05:46:59.282Z,1.17
2023-01-10T05:49:25.932Z,1.73
2023-01-10T05:51:52.488Z,1.08
2023-01-10T05:54:18.902Z,1.77
2023-01-10T05:56:45.408Z,1.20
2023-01-10T05:59:27.325Z,0.98
2023-01-10T06:01:54.416Z,1.50
2023-01-10T06:04:20.818Z,1.67
2023-01-10T06:06:47.232Z,1.58
2023-01-10T06:09:13.688Z,1.10
2023-01-10T06:11:40.262Z,1.17
2023-01-10T06:14:07.725Z,1.00
2023-01-10T06:16:34.256Z,1.73
2023-01-10T06:19:00.738Z,1.05
2023-01-10T06:21:27.089Z,1.55
2023-01-10T06:23:53.692Z,1.45
2023-01-10T06:26:20.151Z,1.30
2023-01-10T06:28:46.615Z,1.48
2023-01-10T06:31:15.005Z,1.30
2023-01-10T06:33:43.864Z,1.50
2023-01-10T06:36:10.737Z,1.77
2023-01-10T06:38:37.270Z,1.77
2023-01-10T06:41:13.058Z,1.60
2023-01-10T06:43:46.928Z,1.90
2023-01-10T06:46:16.587Z,2.08
2023-01-10T06:48:45.411Z,1.58
2023-01-10T06:51:14.204Z,1.57
2023-01-10T06:53:41.247Z,1.55
2023-01-10T06:56:09.673Z,2.28
2023-01-10T06:58:38.659Z,1.63
2023-01-10T07:01:13.756Z,1.63
2023-01-10T07:03:40.811Z,1.83
2023-01-10T07:06:10.768Z,2.20
2023-01-10T07:08:38.230Z,1.83
2023-01-10T07:11:04.781Z,1.58
2023-01-10T07:13:31.259Z,1.80
2023-01-10T07:16:02.513Z,1.73
2023-01-10T07:18:28.989Z,0.95
2023-01-10T07:20:55.605Z,2.10
2023-01-10T07:23:22.335Z,1.90
2023-01-10T07:25:48.716Z,1.67
2023-01-10T07:28:15.409Z,2.13
2023-01-10T07:30:41.820Z,1.83
2023-01-10T07:33:08.192Z,2.05
2023-01-10T07:35:34.671Z,1.67
2023-01-10T07:38:03.146Z,2.03
2023-01-10T07:40:29.855Z,1.77
2023-01-10T07:43:00.409Z,2.05
2023-01-10T07:45:28.129Z,1.88
2023-01-10T07:48:01.835Z,1.80
2023-01-10T07:50:31.370Z,2.30
2023-01-10T07:53:00.086Z,1.40
2023-01-10T07:55:27.647Z,2.17
2023-01-10T07:57:54.736Z,2.60
2023-01-10T08:00:21.824Z,2.15
2023-01-10T08:02:48.645Z,2.30
2023-01-10T08:05:15.126Z,2.40
2023-01-10T08:07:41.744Z,2.70
2023-01-10T08:10:08.688Z,2.45
2023-01-10T08:12:35.408Z,2.10
2023-01-10T08:15:02.067Z,3.08
2023-01-10T08:17:28.745Z,2.90
2023-01-10T08:19:55.135Z,2.65
2023-01-10T08:22:21.509Z,2.63
2023-01-10T08:24:47.968Z,2.83
2023-01-10T08:27:14.396Z,2.15
2023-01-10T08:29:42.046Z,3.03
2023-01-10T08:32:08.848Z,3.67
2023-01-10T08:34:35.201Z,2.40
2023-01-10T08:37:01.732Z,2.45
2023-01-10T08:39:30.433Z,2.15
2023-01-10T08:41:57.517Z,2.40
2023-01-10T08:44:23.988Z,2.45
2023-01-10T08:46:50.630Z,2.95
2023-01-10T08:49:17.255Z,2.72
2023-01-10T08:51:44.661Z,2.40
2023-01-10T08:54:11.024Z,2.83
2023-01-10T08:56:40.063Z,2.38
2023-01-10T08:59:07.299Z,2.30
2023-01-10T09:01:34.081Z,2.33
2023-01-10T09:04:00.617Z,2.58
2023-01-10T09:06:27.024Z,2.93
2023-01-10T09:08:53.412Z,3.10
2023-01-10T09:11:19.912Z,3.30
2023-01-10T09:13:49.952Z,2.60
2023-01-10T09:16:16.946Z,2.47
2023-01-10T09:18:43.437Z,2.40
2023-01-10T09:21:09.861Z,3.13
2023-01-10T09:23:37.311Z,2.33
2023-01-10T09:26:03.830Z,2.63
2023-01-10T09:28:30.263Z,2.40
2023-01-10T09:30:56.747Z,2.90
2023-01-10T09:33:23.237Z,1.77
2023-01-10T09:35:49.693Z,1.90
2023-01-10T09:38:19.029Z,2.85
2023-01-10T09:41:07.071Z,2.30
2023-01-10T09:44:01.519Z,2.03
2023-01-10T09:46:55.696Z,2.33
2023-01-10T09:49:39.456Z,2.72
2023-01-10T09:52:16.966Z,2.33
2023-01-10T09:54:43.958Z,2.63
2023-01-10T09:57:17.572Z,2.37
2023-01-10T09:59:45.678Z,2.10
2023-01-10T10:02:26.448Z,2.75
2023-01-10T10:05:08.859Z,2.67
2023-01-10T10:07:36.787Z,2.17
2023-01-10T10:10:06.065Z,2.70
2023-01-10T10:12:54.051Z,2.00
2023-01-10T10:15:46.143Z,2.17
2023-01-10T10:18:15.164Z,2.00
2023-01-10T10:20:53.866Z,2.22
2023-01-10T10:23:43.401Z,2.30
2023-01-10T10:26:24.064Z,2.95
2023-01-10T10:29:14.380Z,2.85
2023-01-10T10:31:49.593Z,2.40
2023-01-10T10:34:36.737Z,2.22
2023-01-10T10:37:17.789Z,1.97
2023-01-10T10:40:07.609Z,2.08
2023-01-10T10:42:38.183Z,1.70
2023-01-10T10:45:31.168Z,1.40
2023-01-10T10:48:03.730Z,1.80
2023-01-10T10:50:35.271Z,1.97
2023-01-10T10:53:03.702Z,1.52
2023-01-10T10:55:34.815Z,1.77
2023-01-10T10:58:03.304Z,1.98
2023-01-10T11:00:30.190Z,2.25
2023-01-10T11:03:22.072Z,1.80
2023-01-10T11:05:49.211Z,1.90
2023-01-10T11:08:18.279Z,1.77
2023-01-10T11:10:48.904Z,1.83
2023-01-10T11:13:38.219Z,1.52
2023-01-10T11:16:06.402Z,1.90
2023-01-10T11:18:33.812Z,2.38
2023-01-10T11:21:08.482Z,2.75
2023-01-10T11:23:40.733Z,1.83
2023-01-10T11:26:23.793Z,1.73
2023-01-10T11:29:08.269Z,1.33
2023-01-10T11:31:37.019Z,2.92
2023-01-10T11:34:08.556Z,1.73
2023-01-10T11:37:01.632Z,1.73
2023-01-10T11:39:29.758Z,1.60
2023-01-10T11:41:58.269Z,1.80
2023-01-10T11:44:27.522Z,1.38
2023-01-10T11:47:01.754Z,1.75
2023-01-10T11:49:37.664Z,1.92
2023-01-10T11:52:14.941Z,1.70
2023-01-10T11:54:42.205Z,1.77
2023-01-10T11:57:16.487Z,1.05
2023-01-10T12:00:07.017Z,1.45
2023-01-10T12:02:44.523Z,1.35
2023-01-10T12:05:20.635Z,1.83
2023-01-10T12:08:06.168Z,2.23
2023-01-10T12:10:34.265Z,1.38
2023-01-10T12:13:18.224Z,1.88
2023-01-10T12:15:46.859Z,1.75
2023-01-10T12:18:13.348Z,2.35
2023-01-10T12:20:52.453Z,1.53
2023-01-10T12:23:22.128Z,1.55
2023-01-10T12:25:50.052Z,1.75
2023-01-10T12:28:20.556Z,1.50
2023-01-10T12:30:51.817Z,2.22
2023-01-10T12:33:37.944Z,1.50
2023-01-10T12:36:23.038Z,1.40
2023-01-10T12:39:06.489Z,1.65
2023-01-10T12:42:08.842Z,1.30
2023-01-10T12:44:37.252Z,1.23
2023-01-10T12:47:12.795Z,1.97
2023-01-10T12:49:50.338Z,1.67
2023-01-10T12:52:45.636Z,1.35
2023-01-10T12:55:19.792Z,1.15
2023-01-10T12:57:56.501Z,1.25
2023-01-10T13:00:47.309Z,1.40
2023-01-10T13:03:20.283Z,1.52
2023-01-10T13:05:49.669Z,2.17
2023-01-10T13:08:20.940Z,2.00
2023-01-10T13:10:50.773Z,1.80
2023-01-10T13:13:35.552Z,1.13
2023-01-10T13:16:32.838Z,1.50
2023-01-10T13:19:02.046Z,1.52
2023-01-10T13:21:30.648Z,1.83
2023-01-10T13:24:05.956Z,1.42
2023-01-10T13:27:02.068Z,1.60
2023-01-10T13:29:39.409Z,1.48
2023-01-10T13:32:36.078Z,2.08
2023-01-10T13:35:18.059Z,1.70
2023-01-10T13:37:51.276Z,1.80
2023-01-10T13:40:23.006Z,1.60
2023-01-10T13:43:33.637Z,1.48
2023-01-10T13:46:26.201Z,1.77
2023-01-10T13:48:52.617Z,1.50
2023-01-10T13:51:21.186Z,1.10
2023-01-10T13:53:53.388Z,1.40
2023-01-10T13:56:28.930Z,1.30
2023-01-10T13:59:14.025Z,1.42
2023-01-10T14:01:59.988Z,1.70
2023-01-10T14:04:30.370Z,1.38
2023-01-10T14:06:59.664Z,1.53
2023-01-10T14:09:32.414Z,1.60
2023-01-10T14:12:01.762Z,1.75
2023-01-10T14:14:41.188Z,1.25
2023-01-10T14:17:10.677Z,1.40
2023-01-10T14:19:37.965Z,1.77
2023-01-10T14:22:04.541Z,2.00
2023-01-10T14:24:43.510Z,2.20
2023-01-10T14:27:16.875Z,1.27
2023-01-10T14:30:00.613Z,1.92
2023-01-10T14:32:43.745Z,2.00
2023-01-10T14:35:18.963Z,1.60
2023-01-10T14:37:54.342Z,2.10
2023-01-10T14:40:29.855Z,1.52
2023-01-10T14:43:00.069Z,1.90
2023-01-10T14:45:34.595Z,1.93
2023-01-10T14:48:22.038Z,1.77
2023-01-10T14:50:48.512Z,1.27
2023-01-10T14:53:30.823Z,2.35
2023-01-10T14:55:58.585Z,1.92
2023-01-10T14:58:25.056Z,2.07
2023-01-10T15:00:54.918Z,1.95
2023-01-10T15:03:24.478Z,2.08
2023-01-10T15:05:54.473Z,2.22
2023-01-10T15:08:30.303Z,2.17
2023-01-10T15:11:04.196Z,1.10
2023-01-10T15:13:33.135Z,1.90
2023-01-10T15:16:00.607Z,2.45
2023-01-10T15:18:33.748Z,1.70
2023-01-10T15:21:01.271Z,1.88
2023-01-10T15:23:36.508Z,2.10
2023-01-10T15:26:07.081Z,2.17
2023-01-10T15:28:35.889Z,2.47
2023-01-10T15:31:07.971Z,1.73
2023-01-10T15:33:36.955Z,1.27
2023-01-10T15:36:12.433Z,1.47
2023-01-10T15:38:44.051Z,1.83
2023-01-10T15:41:18.519Z,1.60
2023-01-10T15:43:45.973Z,1.50
2023-01-10T15:46:28.002Z,2.03
2023-01-10T15:49:03.047Z,1.87
2023-01-10T15:51:39.228Z,1.73
2023-01-10T15:54:25.527Z,1.42
2023-01-10T15:57:04.460Z,1.42
2023-01-10T15:59:35.454Z,1.52
2023-01-10T16:02:32.369Z,1.63
2023-01-10T16:05:07.715Z,2.10
2023-01-10T16:07:36.025Z,1.42
2023-01-10T16:10:06.783Z,2.00
2023-01-10T16:12:55.243Z,1.40
2023-01-10T16:15:24.307Z,1.73
2023-01-10T16:17:51.741Z,1.65
2023-01-10T16:20:28.256Z,1.42
2023-01-10T16:22:55.898Z,1.52
2023-01-10T16:25:35.291Z,1.30
2023-01-10T16:28:02.370Z,1.20
2023-01-10T16:30:31.243Z,1.08
2023-01-10T16:32:59.154Z,1.17
2023-01-10T16:35:26.015Z,1.20
2023-01-10T16:37:57.859Z,1.10
2023-01-10T16:40:34.387Z,1.30
2023-01-10T16:43:21.733Z,1.52
2023-01-10T16:46:00.652Z,1.27
2023-01-10T16:48:31.985Z,1.40
2023-01-10T16:51:21.835Z,1.27
2023-01-10T16:53:48.496Z,1.53
2023-01-10T16:56:20.891Z,0.98
2023-01-10T16:58:51.968Z,1.10
2023-01-10T17:01:26.500Z,1.35
2023-01-10T17:03:53.388Z,1.50
2023-01-10T17:06:20.584Z,1.00
2023-01-10T17:08:47.455Z,1.08
2023-01-10T17:11:22.728Z,0.80
2023-01-10T17:13:49.487Z,1.48
2023-01-10T17:16:19.321Z,1.13
2023-01-10T17:18:46.402Z,1.60
2023-01-10T17:21:21.554Z,0.75
2023-01-10T17:23:48.366Z,1.50
2023-01-10T17:26:18.086Z,0.90
2023-01-10T17:28:49.594Z,1.20
2023-01-10T17:31:19.441Z,1.17
2023-01-10T17:33:46.219Z,1.00
2023-01-10T17:36:12.693Z,1.20
2023-01-10T17:38:39.286Z,1.10
2023-01-10T17:41:07.288Z,0.70
2023-01-10T17:43:33.738Z,1.17
2023-01-10T17:46:05.511Z,1.10
2023-01-10T17:48:34.530Z,1.23
2023-01-10T17:51:02.199Z,1.17
2023-01-10T17:53:29.291Z,1.10
2023-01-10T17:55:57.752Z,1.13
2023-01-10T17:58:24.305Z,1.20
2023-01-10T18:00:50.869Z,1.30
2023-01-10T18:03:17.517Z,1.60
2023-01-10T18:05:57.770Z,1.77
2023-01-10T18:08:25.228Z,1.53
2023-01-10T18:10:52.005Z,1.52
2023-01-10T18:13:20.664Z,1.90
2023-01-10T18:15:49.377Z,1.98
2023-01-10T18:18:16.857Z,1.85
2023-01-10T18:20:44.665Z,2.00
2023-01-10T18:23:22.124Z,2.13
2023-01-10T18:25:52.431Z,2.63
2023-01-10T18:28:23.517Z,2.30
2023-01-10T18:30:56.029Z,2.55
2023-01-10T18:33:25.670Z,2.97
2023-01-10T18:35:52.144Z,2.85
2023-01-10T18:38:19.117Z,2.58
2023-01-10T18:40:47.287Z,2.38
2023-01-10T18:43:16.524Z,2.70
2023-01-10T18:45:45.104Z,2.90
2023-01-10T18:48:14.017Z,2.67
2023-01-10T18:50:40.555Z,2.58
2023-01-10T18:53:07.012Z,3.10
2023-01-10T18:55:33.503Z,2.85
2023-01-10T18:57:59.900Z,3.13
2023-01-10T19:00:26.545Z,3.50
2023-01-10T19:02:54.165Z,3.45
2023-01-10T19:05:21.200Z,3.42
2023-01-10T19:07:48.001Z,3.63
2023-01-10T19:10:14.444Z,3.17
2023-01-10T19:12:42.305Z,3.25
2023-01-10T19:15:09.331Z,3.80
2023-01-10T19:17:35.822Z,3.08
2023-01-10T19:20:02.272Z,3.35
2023-01-10T19:22:28.660Z,3.50
2023-01-10T19:24:55.067Z,3.00
2023-01-10T19:27:21.556Z,2.80
2023-01-10T19:29:49.673Z,2.95
2023-01-10T19:32:16.362Z,3.15
2023-01-10T19:34:44.818Z,2.57
2023-01-10T19:37:12.756Z,2.50
2023-01-10T19:39:39.155Z,3.00
2023-01-10T19:42:05.643Z,3.10
2023-01-10T19:44:32.077Z,2.67
2023-01-10T19:46:58.617Z,3.10
2023-01-10T19:49:25.254Z,3.28
2023-01-10T19:51:53.503Z,2.72
2023-01-10T19:54:20.028Z,2.90
2023-01-10T19:56:46.497Z,3.03
2023-01-10T19:59:17.736Z,2.83
2023-01-10T20:01:44.804Z,2.85
2023-01-10T20:04:11.733Z,3.15
2023-01-10T20:06:40.020Z,2.60
2023-01-10T20:09:07.902Z,2.67
2023-01-10T20:11:38.237Z,2.73
2023-01-10T20:14:16.487Z,2.92
2023-01-10T20:16:43.633Z,3.22
2023-01-10T20:19:12.139Z,2.67
2023-01-10T20:21:40.284Z,3.30
2023-01-10T20:24:12.581Z,3.47
2023-01-10T20:26:39.970Z,2.83
2023-01-10T20:29:06.739Z,2.92
2023-01-10T20:31:33.791Z,2.58
2023-01-10T20:34:00.765Z,3.40
2023-01-10T20:36:27.778Z,3.30
2023-01-10T20:38:54.241Z,2.70
2023-01-10T20:41:23.681Z,2.95
2023-01-10T20:43:51.001Z,3.20
2023-01-10T20:46:24.383Z,3.08
2023-01-10T20:48:51.795Z,2.73
2023-01-10T20:51:21.515Z,2.70
2023-01-10T20:53:49.452Z,3.10
2023-01-10T20:56:22.975Z,2.72
2023-01-10T20:58:50.390Z,3.30
2023-01-10T21:01:28.859Z,3.10
2023-01-10T21:04:00.122Z,3.20
2023-01-10T21:06:26.722Z,3.67
2023-01-10T21:08:53.347Z,3.88
2023-01-10T21:11:20.532Z,3.45
2023-01-10T21:13:46.955Z,3.90
2023-01-10T21:16:16.172Z,3.70
2023-01-10T21:18:44.387Z,3.70
2023-01-10T21:21:12.931Z,3.65
2023-01-10T21:23:40.256Z,3.63
2023-01-10T21:26:09.297Z,3.40
2023-01-10T21:28:38.649Z,3.85
2023-01-10T21:31:06.444Z,3.88
2023-01-10T21:33:33.333Z,3.30
2023-01-10T21:35:59.750Z,3.95
2023-01-10T21:38:28.519Z,3.30
2023-01-10T21:40:55.797Z,3.17
2023-01-10T21:43:23.055Z,3.75
2023-01-10T21:45:49.974Z,3.45
2023-01-10T21:48:16.419Z,3.40
2023-01-10T21:50:44.657Z,2.90
2023-01-10T21:53:11.139Z,2.58
2023-01-10T21:55:37.536Z,2.45
2023-01-10T21:58:04.007Z,3.05
2023-01-10T22:00:30.589Z,3.05
2023-01-10T22:02:59.604Z,2.63
2023-01-10T22:05:26.444Z,2.35
2023-01-10T22:07:54.497Z,2.45
2023-01-10T22:10:20.949Z,2.85
2023-01-10T22:12:47.609Z,2.45
2023-01-10T22:15:14.192Z,2.67
2023-01-10T22:17:40.636Z,2.80
2023-01-10T22:20:07.755Z,2.75
2023-01-10T22:22:34.204Z,2.95
2023-01-10T22:25:00.635Z,3.30
2023-01-10T22:27:30.259Z,3.20
2023-01-10T22:29:56.710Z,3.42
2023-01-10T22:32:23.137Z,3.63
2023-01-10T22:34:49.574Z,3.05
2023-01-10T22:37:16.228Z,3.47
2023-01-10T22:39:42.686Z,3.33
2023-01-10T22:42:09.093Z,3.53
2023-01-10T22:44:35.460Z,3.97
2023-01-10T22:47:01.973Z,3.40
2023-01-10T22:49:28.504Z,3.92
2023-01-10T22:51:54.884Z,3.53
2023-01-10T22:54:21.294Z,4.05
2023-01-10T22:56:47.725Z,3.75
2023-01-10T22:59:26.198Z,4.10
2023-01-10T23:01:52.659Z,3.90
2023-01-10T23:04:20.285Z,4.17
2023-01-10T23:06:46.919Z,4.22
2023-01-10T23:09:13.302Z,3.90
2023-01-10T23:11:39.711Z,3.78
2023-01-10T23:14:06.152Z,4.65
2023-01-10T23:16:32.751Z,4.47
2023-01-10T23:18:59.954Z,4.30
2023-01-10T23:21:29.215Z,4.47
2023-01-10T23:23:56.237Z,3.97
2023-01-10T23:26:22.672Z,4.20
2023-01-10T23:28:51.051Z,4.30
2023-01-10T23:31:20.511Z,4.03
2023-01-10T23:33:47.850Z,4.40
2023-01-10T23:36:15.149Z,4.72
2023-01-10T23:38:41.567Z,4.70
2023-01-10T23:41:08.187Z,4.90
2023-01-10T23:43:34.748Z,3.85
2023-01-10T23:46:02.211Z,4.53
2023-01-10T23:48:29.475Z,3.95
2023-01-10T23:50:56.278Z,4.47
2023-01-10T23:53:22.990Z,3.60
2023-01-10T23:55:49.428Z,4.38
2023-01-10T23:58:16.968Z,4.18
